Time;durP1;ratioP1;P1;durP2;ratioP2;P2;SDS_P1;SDS_P2;PMS_P1;PMS_P2;Temp;Humidity;BMP_temperature;BMP_pressure;BME280_temperature;BME280_humidity;BME280_pressure;Samples;Min_cycle;Max_cycle;Signal;HPM_P1;HPM_P2
2021/07/09 00:01:39;;;;;;;;;;;;;;;14.34;92.79;99884.56;4976783;28;19930;-62
2021/07/09 00:04:04;;;;;;;;;;;;;;;14.37;92.41;99872.47;5008223;28;19914;-62
2021/07/09 00:06:30;;;;;;;;;;;;;;;14.42;92.77;99876.03;4976517;28;19917;-62
2021/07/09 00:08:55;;;;;;;;;;;;;;;14.41;92.62;99871.72;4976916;28;19914;-62
2021/07/09 00:11:20;;;;;;;;;;;;;;;14.38;93.42;99880.31;4976448;28;19914;-62
2021/07/09 00:13:45;;;;;;;;;;;;;;;14.36;93.83;99877.06;5008294;28;19973;-62
2021/07/09 00:16:11;;;;;;;;;;;;;;;14.31;94.16;99878.88;4976199;28;19918;-62
2021/07/09 00:18:36;;;;;;;;;;;;;;;14.35;94.65;99874.59;4976582;28;19914;-62
2021/07/09 00:21:01;;;;;;;;;;;;;;;14.23;94.50;99872.06;4974999;28;19926;-62
2021/07/09 00:23:27;;;;;;;;;;;;;;;14.26;94.61;99871.53;4976624;28;20368;-63
2021/07/09 00:25:52;;;;;;;;;;;;;;;14.29;94.52;99881.81;4976366;28;19918;-62
2021/07/09 00:28:18;;;;;;;;;;;;;;;14.32;94.95;99886.69;4976636;28;20361;-62
2021/07/09 00:30:43;;;;;;;;;;;;;;;14.32;95.01;99897.47;4976113;28;19968;-62
2021/07/09 00:33:08;;;;;;;;;;;;;;;14.28;94.76;99890.97;4975852;28;19918;-62
2021/07/09 00:35:33;;;;;;;;;;;;;;;14.16;94.09;99890.28;4976123;28;19918;-63
2021/07/09 00:37:59;;;;;;;;;;;;;;;14.06;94.15;99888.28;4976559;28;20377;-63
2021/07/09 00:40:24;;;;;;;;;;;;;;;14.10;93.34;99891.25;4976046;28;20012;-62
2021/07/09 00:42:49;;;;;;;;;;;;;;;14.15;92.88;99885.94;4976291;28;19914;-62
2021/07/09 00:45:14;;;;;;;;;;;;;;;14.14;92.65;99887.03;5006941;28;19951;-62
2021/07/09 00:47:42;;;;;;;;;;;;;;;14.17;92.82;99889.22;4976272;28;19918;-62
2021/07/09 00:50:07;;;;;;;;;;;;;;;14.15;92.62;99877.84;4975718;28;19917;-62
2021/07/09 00:52:33;;;;;;;;;;;;;;;14.10;92.08;99878.59;5007476;28;20261;-62
2021/07/09 00:54:58;;;;;;;;;;;;;;;14.10;92.64;99878.59;4976276;28;19914;-62
2021/07/09 00:57:23;;;;;;;;;;;;;;;14.08;93.19;99878.06;5006825;28;19918;-62
2021/07/09 00:59:49;;;;;;;;;;;;;;;14.01;93.26;99875.53;4974810;28;19960;-62
2021/07/09 01:02:14;;;;;;;;;;;;;;;13.97;93.36;99879.78;4975557;28;19918;-62
2021/07/09 01:04:39;;;;;;;;;;;;;;;13.94;92.46;99880.28;5007120;28;20403;-62
2021/07/09 01:07:05;;;;;;;;;;;;;;;13.96;93.14;99880.03;4975544;28;19971;-63
2021/07/09 01:09:31;;;;;;;;;;;;;;;13.96;93.04;99877.34;4975862;28;19957;-62
2021/07/09 01:11:56;;;;;;;;;;;;;;;14.06;92.82;99868.59;4975281;28;19925;-62
2021/07/09 01:14:21;;;;;;;;;;;;;;;14.15;92.51;99873.31;4975620;28;19914;-62
2021/07/09 01:16:47;;;;;;;;;;;;;;;14.31;90.68;99868.91;4975174;28;19972;-62
2021/07/09 01:19:18;;;;;;;;;;;;;;;14.42;90.20;99859.03;4975482;28;19914;-62
2021/07/09 01:21:44;;;;;;;;;;;;;;;14.44;92.04;99868.50;4975285;28;19914;-63
2021/07/09 01:24:10;;;;;;;;;;;;;;;14.43;91.91;99866.91;4975657;28;19914;-62
2021/07/09 01:26:35;;;;;;;;;;;;;;;14.34;92.29;99863.00;4975167;28;20013;-62
2021/07/09 01:29:01;;;;;;;;;;;;;;;14.38;91.63;99855.25;5006708;28;19957;-62
2021/07/09 01:31:27;;;;;;;;;;;;;;;14.51;90.91;99864.81;4975082;28;19918;-63
2021/07/09 01:33:52;;;;;;;;;;;;;;;14.50;90.48;99858.59;4975272;28;20347;-63
2021/07/09 01:36:18;;;;;;;;;;;;;;;14.54;90.63;99850.84;4974727;28;19922;-62
2021/07/09 01:38:43;;;;;;;;;;;;;;;14.53;91.42;99849.22;4975182;28;19993;-62
2021/07/09 01:41:09;;;;;;;;;;;;;;;14.49;91.44;99851.56;4974858;28;19942;-62
2021/07/09 01:43:34;;;;;;;;;;;;;;;14.43;92.49;99852.59;4974389;28;20005;-63
2021/07/09 01:46:00;;;;;;;;;;;;;;;14.40;93.27;99845.84;4974738;28;19926;-62
2021/07/09 01:48:25;;;;;;;;;;;;;;;14.28;93.41;99842.44;4975091;28;19918;-62
2021/07/09 01:50:50;;;;;;;;;;;;;;;14.30;93.83;99847.56;4974614;28;19918;-62
2021/07/09 01:53:15;;;;;;;;;;;;;;;14.29;92.94;99844.06;4975182;28;19921;-62
2021/07/09 01:55:41;;;;;;;;;;;;;;;14.32;92.92;99843.56;4974582;28;20296;-62
2021/07/09 01:58:06;;;;;;;;;;;;;;;14.38;92.64;99847.97;4975163;28;19969;-62
2021/07/09 02:00:31;;;;;;;;;;;;;;;14.43;92.24;99850.72;4973236;28;20357;-62
2021/07/09 02:02:57;;;;;;;;;;;;;;;14.45;92.29;99853.13;4974869;28;19945;-62
2021/07/09 02:05:22;;;;;;;;;;;;;;;14.51;91.92;99845.94;4974577;28;19918;-62
2021/07/09 02:07:48;;;;;;;;;;;;;;;14.53;92.01;99843.81;4974788;28;20292;-62
2021/07/09 02:10:15;;;;;;;;;;;;;;;14.57;92.16;99845.75;5005899;28;20000;-63
2021/07/09 02:12:40;;;;;;;;;;;;;;;14.60;92.77;99847.97;4974798;28;19914;-62
2021/07/09 02:15:06;;;;;;;;;;;;;;;14.63;92.88;99843.94;4974406;28;19998;-62
2021/07/09 02:17:32;;;;;;;;;;;;;;;14.57;93.30;99850.34;4974581;28;19914;-62
2021/07/09 02:19:57;;;;;;;;;;;;;;;14.46;93.76;99850.19;4975064;28;20386;-63
2021/07/09 02:22:22;;;;;;;;;;;;;;;14.43;94.30;99845.31;4974390;28;19918;-62
2021/07/09 02:24:48;;;;;;;;;;;;;;;14.49;93.65;99843.47;4974818;28;19917;-62
2021/07/09 02:27:14;;;;;;;;;;;;;;;14.46;93.28;99847.50;4974147;28;20014;-63
2021/07/09 02:29:39;;;;;;;;;;;;;;;14.48;93.37;99846.41;4974590;28;19914;-62
2021/07/09 02:32:08;;;;;;;;;;;;;;;14.52;93.52;99836.78;4974066;28;19918;-62
2021/07/09 02:34:34;;;;;;;;;;;;;;;14.53;93.39;99836.56;4974889;28;19988;-62
2021/07/09 02:36:59;;;;;;;;;;;;;;;14.50;93.03;99838.91;4974139;28;20340;-63
2021/07/09 02:39:25;;;;;;;;;;;;;;;14.46;92.92;99828.63;4974655;28;19915;-62
2021/07/09 02:41:51;;;;;;;;;;;;;;;14.49;93.41;99831.88;4974244;28;20249;-62
2021/07/09 02:44:16;;;;;;;;;;;;;;;14.50;93.33;99831.63;4974664;28;19921;-62
2021/07/09 02:46:41;;;;;;;;;;;;;;;14.48;93.59;99836.47;4973837;28;20005;-62
2021/07/09 02:49:07;;;;;;;;;;;;;;;14.50;93.21;99833.50;4974468;28;19930;-62
2021/07/09 02:51:32;;;;;;;;;;;;;;;14.52;93.55;99832.19;4974039;28;19965;-62
2021/07/09 02:53:57;;;;;;;;;;;;;;;14.50;93.50;99834.31;4974644;28;19945;-62
2021/07/09 02:56:22;;;;;;;;;;;;;;;14.52;93.65;99825.97;4977402;28;19918;-62
2021/07/09 02:58:47;;;;;;;;;;;;;;;14.56;93.60;99832.53;4978314;28;19917;-62
2021/07/09 03:01:13;;;;;;;;;;;;;;;14.55;93.88;99820.09;4977792;28;20287;-62
2021/07/09 03:03:38;;;;;;;;;;;;;;;14.59;93.36;99816.66;4978143;28;19914;-63
2021/07/09 03:06:03;;;;;;;;;;;;;;;14.61;93.59;99821.81;4977978;28;19953;-62
2021/07/09 03:08:28;;;;;;;;;;;;;;;14.62;93.31;99820.72;4978144;28;20423;-63
2021/07/09 03:10:54;;;;;;;;;;;;;;;14.57;93.49;99817.97;4977704;28;19925;-62
2021/07/09 03:13:19;;;;;;;;;;;;;;;14.53;93.80;99822.22;4978162;28;19913;-62
2021/07/09 03:15:44;;;;;;;;;;;;;;;14.36;94.23;99819.63;4977456;28;19956;-62
2021/07/09 03:18:09;;;;;;;;;;;;;;;14.31;95.44;99823.06;4978207;28;19914;-62
2021/07/09 03:20:35;;;;;;;;;;;;;;;14.26;96.02;99816.81;4977639;28;20370;-62
2021/07/09 03:23:00;;;;;;;;;;;;;;;14.36;95.49;99817.72;4977854;28;19917;-62
2021/07/09 03:25:25;;;;;;;;;;;;;;;14.44;95.01;99819.97;4977505;28;20193;-62
2021/07/09 03:27:51;;;;;;;;;;;;;;;14.41;94.91;99815.09;4977785;28;20240;-62
2021/07/09 03:30:16;;;;;;;;;;;;;;;14.34;94.91;99814.47;4977287;28;19990;-62
2021/07/09 03:32:41;;;;;;;;;;;;;;;14.33;95.31;99818.25;4977675;28;19997;-62
2021/07/09 03:35:07;;;;;;;;;;;;;;;14.35;95.37;99812.56;4977440;28;19953;-62
2021/07/09 03:37:32;;;;;;;;;;;;;;;14.42;95.11;99808.63;4977546;28;19988;-62
2021/07/09 03:39:57;;;;;;;;;;;;;;;14.48;95.03;99808.66;4977662;28;19980;-62
2021/07/09 03:42:23;;;;;;;;;;;;;;;14.46;94.82;99800.84;4977120;28;20533;-62
2021/07/09 03:44:48;;;;;;;;;;;;;;;14.42;95.27;99808.63;4977376;28;19914;-62
2021/07/09 03:47:13;;;;;;;;;;;;;;;14.48;95.07;99803.28;4976848;28;19922;-62
2021/07/09 03:49:39;;;;;;;;;;;;;;;14.44;95.01;99808.38;4977271;28;19929;-62
2021/07/09 03:52:04;;;;;;;;;;;;;;;14.47;95.06;99810.56;4976856;28;20356;-62
2021/07/09 03:54:29;;;;;;;;;;;;;;;14.50;95.02;99811.94;4977361;28;20005;-62
2021/07/09 03:56:55;;;;;;;;;;;;;;;14.41;94.75;99815.09;4976952;28;20384;-62
2021/07/09 03:59:20;;;;;;;;;;;;;;;14.45;94.91;99810.00;4977226;28;19921;-62
2021/07/09 04:01:45;;;;;;;;;;;;;;;14.51;94.94;99813.56;5007903;28;19914;-62
2021/07/09 04:04:11;;;;;;;;;;;;;;;14.36;94.13;99817.72;4976996;28;19921;-63
2021/07/09 04:06:37;;;;;;;;;;;;;;;14.37;94.72;99813.94;4975969;28;20028;-62
2021/07/09 04:09:03;;;;;;;;;;;;;;;14.47;95.05;99824.03;5008192;28;20383;-61
2021/07/09 04:11:28;;;;;;;;;;;;;;;14.54;94.64;99815.78;4976615;28;19929;-61
2021/07/09 04:13:53;;;;;;;;;;;;;;;14.58;94.33;99814.22;4976120;28;20318;-62
2021/07/09 04:16:18;;;;;;;;;;;;;;;14.50;93.78;99817.31;4976498;28;20360;-62
2021/07/09 04:18:44;;;;;;;;;;;;;;;14.40;94.28;99821.56;4976869;28;20016;-61
2021/07/09 04:21:09;;;;;;;;;;;;;;;14.16;94.77;99823.69;4976509;28;19929;-61
2021/07/09 04:23:34;;;;;;;;;;;;;;;13.95;96.73;99822.66;4976901;28;19936;-61
2021/07/09 04:25:59;;;;;;;;;;;;;;;14.15;96.69;99832.03;4976358;28;19918;-61
2021/07/09 04:28:25;;;;;;;;;;;;;;;14.18;96.65;99828.84;4976945;28;19921;-62
2021/07/09 04:30:50;;;;;;;;;;;;;;;14.19;97.13;99833.16;4976158;28;19918;-61
2021/07/09 04:33:16;;;;;;;;;;;;;;;14.34;96.92;99846.81;4976819;28;19914;-61
2021/07/09 04:35:41;;;;;;;;;;;;;;;14.41;96.50;99842.06;4976255;28;19925;-61
2021/07/09 04:38:06;;;;;;;;;;;;;;;14.50;96.27;99844.28;4976614;28;20275;-61
2021/07/09 04:40:31;;;;;;;;;;;;;;;14.61;95.53;99843.38;4975980;28;19918;-61
2021/07/09 04:42:57;;;;;;;;;;;;;;;14.56;95.04;99846.03;4976405;28;19992;-61
2021/07/09 04:45:22;;;;;;;;;;;;;;;14.58;95.29;99852.00;4974504;28;20053;-62
2021/07/09 04:47:47;;;;;;;;;;;;;;;14.69;94.61;99848.31;4976629;28;19922;-61
2021/07/09 04:50:12;;;;;;;;;;;;;;;14.79;94.07;99855.69;4976126;28;19925;-61
2021/07/09 04:52:38;;;;;;;;;;;;;;;14.87;94.05;99850.63;4976461;28;19960;-62
2021/07/09 04:55:04;;;;;;;;;;;;;;;14.98;93.25;99848.88;4975765;28;20333;-62
2021/07/09 04:57:29;;;;;;;;;;;;;;;15.05;92.75;99852.19;4974846;28;19914;-62
2021/07/09 04:59:54;;;;;;;;;;;;;;;15.12;93.09;99851.94;4976047;28;19914;-62
2021/07/09 05:02:20;;;;;;;;;;;;;;;15.20;92.88;99851.50;4975601;28;20331;-62
2021/07/09 05:04:45;;;;;;;;;;;;;;;15.21;92.45;99857.69;4976347;28;20053;-63
2021/07/09 05:07:10;;;;;;;;;;;;;;;15.30;92.45;99858.84;4975633;28;19918;-62
2021/07/09 05:09:36;;;;;;;;;;;;;;;15.36;91.78;99857.00;4976087;28;19942;-64
2021/07/09 05:12:01;;;;;;;;;;;;;;;15.18;93.65;99855.53;4975427;28;19972;-63
2021/07/09 05:14:27;;;;;;;;;;;;;;;15.29;93.25;99858.03;4975773;28;19921;-62
2021/07/09 05:16:53;;;;;;;;;;;;;;;15.33;93.34;99858.34;4975303;28;19957;-63
2021/07/09 05:19:18;;;;;;;;;;;;;;;15.42;93.08;99855.97;4975504;28;19914;-62
2021/07/09 05:21:43;;;;;;;;;;;;;;;15.39;92.98;99860.00;4975385;28;19928;-62
2021/07/09 05:24:13;;;;;;;;;;;;;;;15.47;92.95;99854.09;4975534;28;19914;-63
2021/07/09 05:26:38;;;;;;;;;;;;;;;15.51;92.69;99851.72;4975188;28;19922;-63
2021/07/09 05:29:04;;;;;;;;;;;;;;;15.61;91.99;99859.06;4975462;28;19921;-62
2021/07/09 05:31:29;;;;;;;;;;;;;;;15.61;92.38;99859.88;4973900;28;19982;-62
2021/07/09 05:33:54;;;;;;;;;;;;;;;15.67;92.31;99863.44;4975661;28;19914;-63
2021/07/09 05:36:21;;;;;;;;;;;;;;;15.68;92.51;99862.38;4974883;28;19949;-62
2021/07/09 05:38:46;;;;;;;;;;;;;;;15.76;92.33;99859.19;4975340;28;19914;-62
2021/07/09 05:41:11;;;;;;;;;;;;;;;15.84;91.78;99860.59;4974987;28;19946;-62
2021/07/09 05:43:36;;;;;;;;;;;;;;;16.05;90.32;99858.81;4975136;28;19914;-61
2021/07/09 05:46:02;;;;;;;;;;;;;;;16.16;89.90;99861.28;4974657;28;19949;-62
2021/07/09 05:48:27;;;;;;;;;;;;;;;16.16;89.85;99865.91;4975283;28;19918;-61
2021/07/09 05:50:52;;;;;;;;;;;;;;;16.29;88.71;99861.88;4974723;28;19921;-62
2021/07/09 05:53:17;;;;;;;;;;;;;;;16.32;88.57;99866.75;4975181;28;20013;-62
2021/07/09 05:55:45;;;;;;;;;;;;;;;16.43;88.55;99864.94;4974703;28;19935;-61
2021/07/09 05:58:10;;;;;;;;;;;;;;;16.40;88.39;99866.28;4975002;28;19914;-62
2021/07/09 06:00:35;;;;;;;;;;;;;;;16.51;87.94;99870.63;4974463;28;19921;-61
2021/07/09 06:03:01;;;;;;;;;;;;;;;16.50;86.94;99871.72;4974891;28;20045;-62
2021/07/09 06:05:26;;;;;;;;;;;;;;;16.59;86.87;99864.69;4974696;28;19922;-62
2021/07/09 06:07:52;;;;;;;;;;;;;;;16.53;87.13;99868.47;4974961;28;19910;-62
2021/07/09 06:10:17;;;;;;;;;;;;;;;16.51;86.85;99873.34;4974585;28;19918;-62
2021/07/09 06:12:42;;;;;;;;;;;;;;;16.45;86.63;99879.81;4974796;28;19914;-62
2021/07/09 06:15:08;;;;;;;;;;;;;;;16.29;88.31;99880.81;4974388;28;19910;-61
2021/07/09 06:17:33;;;;;;;;;;;;;;;16.47;87.75;99872.22;4975035;28;20384;-62
2021/07/09 06:19:58;;;;;;;;;;;;;;;16.57;87.22;99877.69;4974964;28;19914;-62
2021/07/09 06:22:23;;;;;;;;;;;;;;;16.52;86.70;99880.34;4974362;28;19917;-62
2021/07/09 06:24:49;;;;;;;;;;;;;;;16.60;85.95;99887.97;4974844;28;20331;-61
2021/07/09 06:27:14;;;;;;;;;;;;;;;16.59;85.95;99886.34;4974319;28;20003;-61
2021/07/09 06:29:39;;;;;;;;;;;;;;;16.73;87.26;99885.84;4974424;28;19914;-62
2021/07/09 06:32:05;;;;;;;;;;;;;;;16.99;86.09;99890.25;4974285;28;20368;-62
2021/07/09 06:34:31;;;;;;;;;;;;;;;16.93;85.75;99888.63;4973469;28;19925;-62
2021/07/09 06:36:57;;;;;;;;;;;;;;;17.15;85.03;99893.81;4974228;28;20371;-61
2021/07/09 06:39:22;;;;;;;;;;;;;;;17.56;83.35;99893.78;4974601;28;19921;-62
2021/07/09 06:41:47;;;;;;;;;;;;;;;17.46;83.46;99891.09;4974192;28;19921;-61
2021/07/09 06:44:13;;;;;;;;;;;;;;;17.23;84.15;99887.03;4974896;28;20298;-62
2021/07/09 06:46:39;;;;;;;;;;;;;;;17.46;83.12;99902.75;4974052;28;20435;-61
2021/07/09 06:49:04;;;;;;;;;;;;;;;17.48;83.82;99904.38;4974778;28;19914;-62
2021/07/09 06:51:30;;;;;;;;;;;;;;;17.62;82.21;99902.72;4974151;28;20356;-62
2021/07/09 06:53:55;;;;;;;;;;;;;;;17.26;83.65;99905.44;4974635;28;19956;-62
2021/07/09 06:56:20;;;;;;;;;;;;;;;17.13;84.78;99901.38;4974095;28;19918;-61
2021/07/09 06:58:45;;;;;;;;;;;;;;;17.27;83.72;99904.34;4974911;28;19965;-62
2021/07/09 07:01:11;;;;;;;;;;;;;;;17.22;83.71;99904.34;4974041;28;19949;-61
2021/07/09 07:03:36;;;;;;;;;;;;;;;17.15;83.51;99909.25;4974452;28;19968;-62
2021/07/09 07:06:01;;;;;;;;;;;;;;;17.06;83.19;99905.44;4974000;28;19918;-62
2021/07/09 07:08:26;;;;;;;;;;;;;;;17.17;82.83;99907.06;4974470;28;19961;-62
2021/07/09 07:10:52;;;;;;;;;;;;;;;17.32;82.67;99908.97;4973963;28;20345;-62
2021/07/09 07:13:18;;;;;;;;;;;;;;;17.66;81.23;99906.53;4974268;28;20303;-62
2021/07/09 07:15:43;;;;;;;;;;;;;;;17.84;80.78;99914.13;4974015;28;19918;-61
2021/07/09 07:18:09;;;;;;;;;;;;;;;17.81;79.91;99914.66;4974385;28;19960;-62
2021/07/09 07:20:35;;;;;;;;;;;;;;;18.05;78.85;99914.91;4974073;28;19918;-61
2021/07/09 07:23:00;;;;;;;;;;;;;;;17.96;79.31;99918.44;4974525;28;19922;-61
2021/07/09 07:25:26;;;;;;;;;;;;;;;17.48;79.97;99913.31;4973966;28;19922;-62
2021/07/09 07:27:51;;;;;;;;;;;;;;;17.94;79.64;99916.00;4974587;28;19914;-61
2021/07/09 07:30:16;;;;;;;;;;;;;;;18.06;78.07;99923.84;4974147;28;19914;-61
2021/07/09 07:32:46;;;;;;;;;;;;;;;18.55;76.90;99925.88;4974392;28;20265;-62
2021/07/09 07:35:11;;;;;;;;;;;;;;;18.59;77.16;99921.47;4973820;28;19914;-61
2021/07/09 07:37:37;;;;;;;;;;;;;;;18.43;77.29;99919.94;4972991;28;19921;-61
2021/07/09 07:40:02;;;;;;;;;;;;;;;18.68;77.47;99916.28;4973696;28;20384;-60
2021/07/09 07:42:28;;;;;;;;;;;;;;;18.95;76.48;99921.34;4975868;28;19973;-61
2021/07/09 07:44:53;;;;;;;;;;;;;;;18.79;76.34;99922.50;4977598;28;20269;-61
2021/07/09 07:47:21;;;;;;;;;;;;;;;18.70;76.55;99922.25;4977025;28;19928;-61
2021/07/09 07:49:46;;;;;;;;;;;;;;;18.27;76.36;99919.16;4977646;28;19914;-63
2021/07/09 07:52:12;;;;;;;;;;;;;;;18.25;79.09;99915.94;4976891;28;19964;-62
2021/07/09 07:54:37;;;;;;;;;;;;;;;18.28;79.14;99923.53;4977289;28;19925;-62
2021/07/09 07:57:02;;;;;;;;;;;;;;;18.11;79.57;99921.13;4976718;28;20365;-62
2021/07/09 07:59:28;;;;;;;;;;;;;;;18.05;79.77;99911.38;4977382;28;19960;-62
2021/07/09 08:01:53;;;;;;;;;;;;;;;18.37;78.21;99918.31;4975579;28;19914;-62
2021/07/09 08:04:18;;;;;;;;;;;;;;;18.37;78.32;99918.31;4977059;28;19917;-62
2021/07/09 08:06:43;;;;;;;;;;;;;;;18.95;75.31;99924.06;4976720;28;19918;-62
2021/07/09 08:09:09;;;;;;;;;;;;;;;18.78;75.85;99915.47;4976983;28;19914;-62
2021/07/09 08:11:34;;;;;;;;;;;;;;;18.81;75.73;99917.63;4976649;28;19925;-62
2021/07/09 08:13:59;;;;;;;;;;;;;;;18.58;76.23;99919.06;4977354;28;19929;-61
2021/07/09 08:16:24;;;;;;;;;;;;;;;18.58;77.17;99917.16;4976579;28;20352;-62
2021/07/09 08:18:50;;;;;;;;;;;;;;;18.49;77.66;99913.38;4977051;28;19914;-62
2021/07/09 08:21:15;;;;;;;;;;;;;;;19.06;75.02;99914.72;4976513;28;20411;-62
2021/07/09 08:23:40;;;;;;;;;;;;;;;18.74;76.60;99923.31;4976865;28;20004;-62
2021/07/09 08:26:06;;;;;;;;;;;;;;;19.00;74.99;99921.31;4976250;28;19918;-62
2021/07/09 08:28:31;;;;;;;;;;;;;;;18.63;77.44;99917.13;4976774;28;19914;-62
2021/07/09 08:30:56;;;;;;;;;;;;;;;18.20;80.53;99919.47;4976161;28;19993;-62
2021/07/09 08:33:21;;;;;;;;;;;;;;;18.29;80.09;99922.41;4976665;28;19964;-62
2021/07/09 08:35:47;;;;;;;;;;;;;;;19.06;76.44;99908.50;4975914;28;19918;-62
2021/07/09 08:38:12;;;;;;;;;;;;;;;19.52;74.58;99916.28;4976462;28;20341;-62
2021/07/09 08:40:38;;;;;;;;;;;;;;;19.61;73.92;99904.50;4975943;28;19922;-62
2021/07/09 08:43:03;;;;;;;;;;;;;;;20.08;72.48;99906.81;4976600;28;19968;-62
2021/07/09 08:45:28;;;;;;;;;;;;;;;20.24;71.96;99905.53;4976157;28;19957;-62
2021/07/09 08:47:55;;;;;;;;;;;;;;;20.47;70.29;99898.47;4976321;28;19970;-62
2021/07/09 08:50:20;;;;;;;;;;;;;;;20.31;70.46;99908.72;4976013;28;21624;-62
2021/07/09 08:52:45;;;;;;;;;;;;;;;19.58;73.99;99902.38;4975832;28;20360;-62
2021/07/09 08:55:12;;;;;;;;;;;;;;;19.18;74.56;99907.03;4974587;28;19914;-62
2021/07/09 08:57:40;;;;;;;;;;;;;;;19.03;75.29;99901.72;4975986;28;19941;-62
2021/07/09 09:00:06;;;;;;;;;;;;;;;18.91;74.76;99912.94;4975778;28;19929;-62
2021/07/09 09:02:32;;;;;;;;;;;;;;;19.36;73.00;99912.91;4976008;28;20312;-62
2021/07/09 09:04:57;;;;;;;;;;;;;;;19.60;72.67;99908.34;4976018;28;19953;-62
2021/07/09 09:07:26;;;;;;;;;;;;;;;19.88;71.00;99910.56;4975411;28;19925;-62
2021/07/09 09:09:52;;;;;;;;;;;;;;;20.39;69.30;99912.72;4975855;28;20407;-62
2021/07/09 09:12:17;;;;;;;;;;;;;;;20.10;71.57;99912.78;4975366;28;19922;-62
2021/07/09 09:14:43;;;;;;;;;;;;;;;20.05;72.31;99908.22;4975671;28;19914;-62
2021/07/09 09:17:28;;;;;;;;;;;;;;;19.17;75.42;99908.16;4975230;28;19937;-62
2021/07/09 09:20:13;;;;;;;;;;;;;;;19.83;74.12;99904.06;4975770;28;20402;-62
2021/07/09 09:22:59;;;;;;;;;;;;;;;19.69;73.52;99914.00;4975429;28;20045;-62
2021/07/09 09:25:25;;;;;;;;;;;;;;;19.58;75.15;99915.16;4975043;28;20419;-62
2021/07/09 09:27:58;;;;;;;;;;;;;;;19.67;71.91;99908.06;4975540;28;20283;-62
2021/07/09 09:30:23;;;;;;;;;;;;;;;20.39;71.02;99912.72;4975108;28;19944;-62
2021/07/09 09:32:48;;;;;;;;;;;;;;;21.05;68.44;99925.47;4975342;28;20360;-62
2021/07/09 09:35:37;;;;;;;;;;;;;;;20.65;68.45;99915.97;4975244;28;19918;-62
2021/07/09 09:38:03;;;;;;;;;;;;;;;22.12;64.40;99924.81;4975374;28;19914;-62
2021/07/09 09:40:29;;;;;;;;;;;;;;;21.90;62.25;99933.69;4975013;28;19923;-62
2021/07/09 09:42:54;;;;;;;;;;;;;;;21.95;63.53;99926.19;4975369;28;20341;-62
2021/07/09 09:45:20;;;;;;;;;;;;;;;21.32;65.72;99927.53;4974550;28;20884;-62
2021/07/09 09:47:46;;;;;;;;;;;;;;;19.84;71.04;99940.22;4975381;28;19940;-62
2021/07/09 09:50:13;;;;;;;;;;;;;;;19.04;69.77;99941.38;4974914;28;19914;-62
2021/07/09 09:52:39;;;;;;;;;;;;;;;18.11;73.80;99937.41;4975248;28;19918;-62
2021/07/09 09:55:06;;;;;;;;;;;;;;;17.98;73.98;99951.53;4974757;28;19945;-62
2021/07/09 09:57:31;;;;;;;;;;;;;;;17.48;75.36;99947.75;4975244;28;19925;-62
2021/07/09 09:59:56;;;;;;;;;;;;;;;17.40;74.83;99944.47;4975031;28;19914;-63
2021/07/09 10:02:24;;;;;;;;;;;;;;;17.12;78.59;99953.09;4973425;28;19921;-62
2021/07/09 10:04:49;;;;;;;;;;;;;;;16.93;82.27;99945.50;4974218;28;19914;-62
2021/07/09 10:07:15;;;;;;;;;;;;;;;16.96;80.73;99944.94;4974519;28;19943;-62
2021/07/09 10:09:40;;;;;;;;;;;;;;;16.48;82.74;99949.63;4973646;28;20372;-63
2021/07/09 10:12:06;;;;;;;;;;;;;;;16.54;82.19;99943.16;4973265;28;20260;-63
2021/07/09 10:14:32;;;;;;;;;;;;;;;16.34;83.67;99932.25;4973222;28;19973;-63
2021/07/09 10:17:00;;;;;;;;;;;;;;;16.44;82.61;99936.88;4972876;28;19922;-63
2021/07/09 10:19:32;;;;;;;;;;;;;;;16.65;80.60;99937.78;4975007;28;19937;-63
2021/07/09 10:21:57;;;;;;;;;;;;;;;16.92;82.09;99943.03;4974284;28;19951;-63
2021/07/09 10:24:22;;;;;;;;;;;;;;;16.77;84.61;99941.06;4974586;28;19922;-63
2021/07/09 10:26:48;;;;;;;;;;;;;;;17.11;83.22;99938.75;4972871;28;20016;-62
2021/07/09 10:29:14;;;;;;;;;;;;;;;17.23;84.33;99933.91;4973561;28;20064;-63
2021/07/09 10:31:40;;;;;;;;;;;;;;;17.18;83.99;99942.03;4974231;28;20004;-63
2021/07/09 10:34:24;;;;;;;;;;;;;;;17.08;85.50;99941.19;4974775;28;19914;-62
2021/07/09 10:36:53;;;;;;;;;;;;;;;17.42;83.45;99945.03;4972826;28;19925;-63
2021/07/09 10:39:37;;;;;;;;;;;;;;;17.56;82.23;99941.78;4974482;28;20272;-62
2021/07/09 10:42:17;;;;;;;;;;;;;;;17.84;81.81;99949.38;4974230;28;19956;-62
2021/07/09 10:44:55;;;;;;;;;;;;;;;17.69;82.51;99946.63;4974411;28;19914;-62
2021/07/09 10:47:20;;;;;;;;;;;;;;;18.06;81.33;99946.34;4973887;28;20380;-62
2021/07/09 10:49:49;;;;;;;;;;;;;;;17.72;80.54;99943.38;4974408;28;20017;-62
2021/07/09 10:52:19;;;;;;;;;;;;;;;17.60;81.22;99942.88;4973996;28;20348;-62
2021/07/09 10:54:44;;;;;;;;;;;;;;;17.69;82.80;99952.88;4973093;28;19914;-61
2021/07/09 10:57:22;;;;;;;;;;;;;;;17.94;81.47;99947.72;4973942;28;19918;-62
2021/07/09 11:00:06;;;;;;;;;;;;;;;17.81;80.41;99949.91;4974339;28;19920;-62
2021/07/09 11:02:49;;;;;;;;;;;;;;;18.04;79.04;99942.28;4973942;28;20364;-63
2021/07/09 11:05:33;;;;;;;;;;;;;;;18.40;79.83;99950.34;4974151;28;19950;-62
2021/07/09 11:08:17;;;;;;;;;;;;;;;18.53;78.52;99952.47;4974402;28;19914;-62
2021/07/09 11:10:58;;;;;;;;;;;;;;;17.94;77.24;99950.44;4973837;28;19925;-61
2021/07/09 11:13:42;;;;;;;;;;;;;;;18.61;75.09;99957.31;4974108;28;20337;-61
2021/07/09 11:16:19;;;;;;;;;;;;;;;18.87;74.42;99957.22;4975382;28;19988;-62
2021/07/09 11:18:53;;;;;;;;;;;;;;;18.62;77.13;99963.53;4977836;28;19914;-62
2021/07/09 11:21:31;;;;;;;;;;;;;;;19.34;73.96;99955.84;4977589;28;20332;-61
2021/07/09 11:24:00;;;;;;;;;;;;;;;18.68;74.27;99952.41;4977742;28;20376;-62
2021/07/09 11:26:25;;;;;;;;;;;;;;;18.52;75.28;99958.97;4977337;28;19919;-61
2021/07/09 11:28:51;;;;;;;;;;;;;;;18.69;76.00;99953.22;4976589;28;20028;-62
2021/07/09 11:31:32;;;;;;;;;;;;;;;18.92;73.73;99949.03;4977190;28;19918;-61
2021/07/09 11:34:04;;;;;;;;;;;;;;;18.89;73.46;99957.75;4977610;28;19914;-61
2021/07/09 11:36:41;;;;;;;;;;;;;;;19.39;69.38;99948.50;4959825;28;19941;-61
2021/07/09 11:39:13;;;;;;;;;;;;;;;19.59;70.37;99952.97;4977463;28;20316;-62
2021/07/09 11:42:14;;;;;;;;;;;;;;;18.93;68.17;99953.41;4976981;28;19922;-62
2021/07/09 11:44:46;;;;;;;;;;;;;;;19.40;68.21;99941.94;4936784;29;19915;-62
2021/07/09 11:47:15;;;;;;;;;;;;;;;20.17;66.13;99945.91;4970195;28;20056;-62
2021/07/09 11:49:41;;;;;;;;;;;;;;;19.88;67.43;99943.22;4977258;28;19920;-62
2021/07/09 11:52:07;;;;;;;;;;;;;;;20.24;65.52;99943.63;4976812;28;19934;-61
2021/07/09 11:54:34;;;;;;;;;;;;;;;20.12;68.85;99945.94;4977182;28;19918;-62
2021/07/09 11:57:01;;;;;;;;;;;;;;;20.53;69.31;99945.50;4976606;28;20013;-62
2021/07/09 11:59:26;;;;;;;;;;;;;;;19.93;69.41;99943.97;4977098;28;19914;-62
2021/07/09 12:02:04;;;;;;;;;;;;;;;20.47;67.80;99948.28;4976876;28;19932;-62
2021/07/09 12:04:30;;;;;;;;;;;;;;;19.88;70.82;99945.94;4977086;28;19914;-62
2021/07/09 12:07:14;;;;;;;;;;;;;;;20.57;69.69;99946.56;4976750;28;19918;-62
2021/07/09 12:09:40;;;;;;;;;;;;;;;20.85;67.46;99942.94;4977263;28;19914;-62
2021/07/09 12:12:05;;;;;;;;;;;;;;;20.67;69.48;99951.91;4976460;28;19981;-62
2021/07/09 12:14:30;;;;;;;;;;;;;;;20.29;69.85;99950.94;4976987;28;20347;-62
2021/07/09 12:16:56;;;;;;;;;;;;;;;20.64;67.83;99952.47;4975153;28;19925;-62
2021/07/09 12:19:21;;;;;;;;;;;;;;;20.84;66.14;99943.22;4976767;28;19961;-62
2021/07/09 12:21:53;;;;;;;;;;;;;;;19.85;70.70;99941.88;4976507;28;20020;-62
2021/07/09 12:24:19;;;;;;;;;;;;;;;20.36;69.30;99945.97;4976946;28;19972;-62
2021/07/09 12:26:45;;;;;;;;;;;;;;;20.15;69.87;99939.94;4975938;28;19993;-62
2021/07/09 12:29:10;;;;;;;;;;;;;;;20.38;67.98;99936.41;4974959;28;19968;-65
2021/07/09 12:31:35;;;;;;;;;;;;;;;20.29;67.80;99940.84;4976250;28;20372;-62
2021/07/09 12:34:00;;;;;;;;;;;;;;;20.08;68.66;99934.03;4975354;28;19917;-62
2021/07/09 12:36:26;;;;;;;;;;;;;;;19.83;70.69;99933.19;4976238;28;20036;-62
2021/07/09 12:39:01;;;;;;;;;;;;;;;20.22;67.99;99937.69;4976546;28;19961;-62
2021/07/09 12:41:32;;;;;;;;;;;;;;;20.38;68.43;99928.25;4976077;28;19922;-62
2021/07/09 12:43:57;;;;;;;;;;;;;;;20.66;67.14;99928.47;4976471;28;19914;-62
2021/07/09 12:46:26;;;;;;;;;;;;;;;21.00;65.88;99935.66;4974216;28;20018;-62